Time;durP1;ratioP1;P1;durP2;ratioP2;P2;SDS_P1;SDS_P2;PMS_P1;PMS_P2;Temp;Humidity;BMP_temperature;BMP_pressure;BME280_temperature;BME280_humidity;BME280_pressure;Samples;Min_cycle;Max_cycle;Signal;HPM_P1;HPM_P2
2022/07/03 00:00:35;;;;;;;2.15;1.90;;;;;;;11.82;100.00;93407.22;2089637;28;20039;-83
2022/07/03 00:01:38;;;;;;;2.05;1.85;;;;;;;11.86;100.00;93404.47;2097984;28;20107;-85
2022/07/03 00:02:39;;;;;;;3.97;1.95;;;;;;;11.89;100.00;93406.28;2089923;28;20134;-85
2022/07/03 00:03:40;;;;;;;2.20;2.00;;;;;;;11.68;100.00;93409.41;2081860;28;20453;-82
2022/07/03 00:04:41;;;;;;;1.92;1.70;;;;;;;11.67;100.00;93403.28;2081432;28;20506;-82
2022/07/03 00:05:42;;;;;;;3.08;1.98;;;;;;;11.79;100.00;93405.31;2081356;28;20029;-85
2022/07/03 00:06:43;;;;;;;2.58;1.90;;;;;;;11.77;100.00;93406.94;2081597;28;20112;-86
2022/07/03 00:07:44;;;;;;;3.63;1.98;;;;;;;11.78;100.00;93413.78;2089754;28;20074;-85
2022/07/03 00:08:46;;;;;;;4.65;1.77;;;;;;;11.76;100.00;93410.75;2089709;28;20112;-83
2022/07/03 00:09:47;;;;;;;5.43;1.90;;;;;;;11.70;100.00;93405.13;2081421;28;20025;-85
2022/07/03 00:10:48;;;;;;;2.13;1.95;;;;;;;11.72;100.00;93410.84;2081495;28;20032;-82
2022/07/03 00:11:50;;;;;;;2.42;1.60;;;;;;;11.76;100.00;93416.09;2089757;28;20487;-85
2022/07/03 00:12:51;;;;;;;3.72;2.00;;;;;;;11.75;100.00;93410.00;2081513;28;20456;-83
2022/07/03 00:13:52;;;;;;;2.05;1.77;;;;;;;11.78;100.00;93408.44;2081231;28;20506;-81
2022/07/03 00:14:53;;;;;;;3.33;1.95;;;;;;;11.76;100.00;93411.50;2106316;28;20030;-86
2022/07/03 00:15:55;;;;;;;4.88;2.05;;;;;;;11.72;100.00;93410.84;2106155;28;20105;-86
2022/07/03 00:16:56;;;;;;;2.65;1.90;;;;;;;11.72;100.00;93412.75;2081473;28;20478;-83
2022/07/03 00:17:57;;;;;;;3.67;2.10;;;;;;;11.69;100.00;93408.25;2090940;28;20028;-82
2022/07/03 00:18:58;;;;;;;5.22;2.00;;;;;;;11.70;100.00;93410.50;2089431;28;20020;-83
2022/07/03 00:20:06;;;;;;;3.58;2.03;;;;;;;11.60;100.00;93408.81;2098073;28;20024;-86
2022/07/03 00:21:09;;;;;;;6.30;1.90;;;;;;;11.58;100.00;93411.13;2088608;28;20142;-85
2022/07/03 00:22:13;;;;;;;3.05;1.90;;;;;;;11.60;100.00;93414.16;2082226;28;20033;-85
2022/07/03 00:23:18;;;;;;;6.35;2.50;;;;;;;11.57;100.00;93412.31;2089522;28;20021;-81
2022/07/03 00:24:30;;;;;;;5.20;2.67;;;;;;;11.53;100.00;93403.59;2090031;28;20028;-84
2022/07/03 00:25:41;;;;;;;4.43;2.28;;;;;;;11.64;100.00;93409.50;2089455;28;20040;-85
2022/07/03 00:26:45;;;;;;;4.75;1.92;;;;;;;11.60;100.00;93414.91;2074597;28;20498;-84
2022/07/03 00:27:54;;;;;;;6.70;2.53;;;;;;;11.43;100.00;93416.03;2082068;28;20457;-83
2022/07/03 00:29:03;;;;;;;3.93;2.13;;;;;;;11.39;100.00;93411.91;2081186;28;20060;-83
2022/07/03 00:30:15;;;;;;;3.17;2.35;;;;;;;11.41;100.00;93406.88;2075477;28;20424;-86
2022/07/03 00:31:24;;;;;;;6.82;2.40;;;;;;;11.23;100.00;93408.00;2066287;28;20041;-82
2022/07/03 00:32:28;;;;;;;3.70;2.13;;;;;;;11.38;100.00;93408.50;2077041;28;20160;-83
2022/07/03 00:33:34;;;;;;;3.00;2.20;;;;;;;11.44;100.00;93404.16;2081233;28;20056;-83
2022/07/03 00:34:37;;;;;;;3.35;2.55;;;;;;;11.49;100.00;93409.00;2074665;28;20025;-83
2022/07/03 00:35:39;;;;;;;3.13;2.00;;;;;;;11.45;100.00;93408.31;2073243;28;20447;-84
2022/07/03 00:36:42;;;;;;;3.28;2.30;;;;;;;11.28;100.00;93406.75;2065515;28;20113;-83
2022/07/03 00:37:43;;;;;;;2.72;1.95;;;;;;;11.30;100.00;93407.13;2065427;28;20089;-84
2022/07/03 00:38:46;;;;;;;5.22;2.20;;;;;;;11.32;100.00;93405.53;2073192;28;20022;-84
2022/07/03 00:39:50;;;;;;;2.83;2.17;;;;;;;11.37;100.00;93411.56;2065591;28;20026;-84
2022/07/03 00:40:52;;;;;;;3.75;2.42;;;;;;;11.36;100.00;93413.47;2073955;28;20022;-84
2022/07/03 00:42:02;;;;;;;4.40;2.40;;;;;;;11.37;100.00;93412.34;2073335;28;20052;-85
2022/07/03 00:43:05;;;;;;;2.78;1.80;;;;;;;11.36;100.00;93413.47;2075545;28;20033;-84
2022/07/03 00:44:06;;;;;;;6.97;2.50;;;;;;;11.30;100.00;93410.53;2089799;28;20029;-82
2022/07/03 00:45:09;;;;;;;3.75;2.03;;;;;;;11.36;100.00;93408.13;2080994;28;20030;-84
2022/07/03 00:46:10;;;;;;;4.68;2.10;;;;;;;11.38;100.00;93407.75;2089806;28;20504;-84
2022/07/03 00:47:13;;;;;;;5.90;2.45;;;;;;;11.43;100.00;93409.94;2090044;28;20541;-83
2022/07/03 00:48:16;;;;;;;3.15;2.08;;;;;;;11.37;100.00;93406.22;2098093;28;20428;-84
2022/07/03 00:49:19;;;;;;;5.95;2.00;;;;;;;11.31;100.00;93408.63;2089043;28;20032;-83
2022/07/03 00:50:25;;;;;;;3.65;2.45;;;;;;;11.21;100.00;93407.66;2073752;28;20026;-84
2022/07/03 00:51:29;;;;;;;8.45;2.15;;;;;;;11.22;100.00;93405.75;2073656;28;20030;-83
2022/07/03 00:52:30;;;;;;;2.83;2.45;;;;;;;11.27;100.00;93413.28;2073756;28;20092;-83
2022/07/03 00:53:33;;;;;;;3.40;2.20;;;;;;;11.37;100.00;93411.56;2089014;28;20051;-84
2022/07/03 00:54:35;;;;;;;2.88;1.90;;;;;;;11.38;100.00;93413.09;2080960;28;20025;-83
2022/07/03 00:55:44;;;;;;;4.07;2.30;;;;;;;11.35;100.00;93410.06;2089474;28;20029;-85
2022/07/03 00:56:50;;;;;;;7.53;2.33;;;;;;;11.38;100.00;93418.44;2089503;28;20105;-84
2022/07/03 00:57:54;;;;;;;2.28;1.95;;;;;;;11.31;100.00;93413.97;2081171;28;20059;-82
2022/07/03 00:59:00;;;;;;;7.70;2.25;;;;;;;11.39;100.00;93414.59;2081492;28;20029;-87
2022/07/03 01:00:04;;;;;;;2.78;2.05;;;;;;;11.41;100.00;93421.03;2073759;28;20076;-83
2022/07/03 01:01:05;;;;;;;3.55;2.10;;;;;;;11.37;100.00;93417.69;2073622;28;20057;-84
2022/07/03 01:02:10;;;;;;;3.35;2.20;;;;;;;11.32;100.00;93413.56;2072862;28;20018;-82
2022/07/03 01:03:20;;;;;;;3.03;2.10;;;;;;;11.19;100.00;93418.00;2089301;28;20108;-85
2022/07/03 01:04:49;;;;;;;4.95;2.22;;;;;;;11.26;100.00;93414.47;2089483;28;20024;-84
2022/07/03 01:05:59;;;;;;;4.15;2.35;;;;;;;11.23;100.00;93417.94;2093227;28;20032;-85
2022/07/03 01:07:05;;;;;;;2.10;1.77;;;;;;;11.24;100.00;93427.50;2081051;28;20702;-83
2022/07/03 01:08:21;;;;;;;2.03;1.73;;;;;;;11.27;100.00;93414.03;2074287;28;20100;-86
2022/07/03 01:09:34;;;;;;;5.97;2.50;;;;;;;11.12;100.00;93422.75;2083142;28;20076;-83
2022/07/03 01:10:59;;;;;;;3.60;2.17;;;;;;;11.18;100.00;93419.19;2090785;28;20044;-84
2022/07/03 01:12:19;;;;;;;3.05;2.40;;;;;;;11.05;100.00;93424.38;2081099;28;20075;-83
2022/07/03 01:13:36;;;;;;;2.65;1.88;;;;;;;11.10;100.00;93423.91;2078281;28;20036;-82
2022/07/03 01:14:56;;;;;;;4.20;2.45;;;;;;;11.14;100.00;93423.09;2097322;28;20124;-83
2022/07/03 01:15:57;;;;;;;;;;;;;;;11.19;100.00;93426.03;2081343;28;20093;-81
2022/07/03 01:17:02;;;;;;;3.45;2.00;;;;;;;11.07;100.00;93422.06;2081192;28;19976;-81
2022/07/03 01:18:28;;;;;;;4.15;1.80;;;;;;;10.98;100.00;93429.88;2089476;28;20040;-83
2022/07/03 01:19:38;;;;;;;4.97;2.08;;;;;;;10.89;100.00;93428.91;2087737;28;20028;-84
2022/07/03 01:20:44;;;;;;;2.22;2.13;;;;;;;10.96;100.00;93434.13;2096376;28;20047;-84
2022/07/03 01:22:19;;;;;;;2.63;1.67;;;;;;;11.02;100.00;93430.59;2082143;28;20040;-84
2022/07/03 01:23:35;;;;;;;2.35;1.80;;;;;;;11.05;100.00;93421.72;2097475;28;20020;-83
2022/07/03 01:25:06;;;;;;;3.47;2.20;;;;;;;10.95;100.00;93419.25;2084680;28;20045;-83
2022/07/03 01:26:09;;;;;;;4.05;2.55;;;;;;;10.82;100.00;93421.78;2089427;28;20058;-82
2022/07/03 01:27:16;;;;;;;4.80;2.00;;;;;;;10.87;100.00;93428.56;2080890;28;20025;-82
2022/07/03 01:28:20;;;;;;;3.60;2.00;;;;;;;10.88;100.00;93425.47;2089829;28;20021;-88
2022/07/03 01:29:36;;;;;;;2.45;2.00;;;;;;;10.94;100.00;93415.81;2089307;28;20029;-88
2022/07/03 01:30:52;;;;;;;2.92;2.03;;;;;;;10.85;100.00;93423.63;2074604;28;20026;-86
2022/07/03 01:31:55;;;;;;;2.67;2.13;;;;;;;10.66;100.00;93425.09;2080860;28;20029;-87
2022/07/03 01:33:07;;;;;;;4.60;2.30;;;;;;;10.81;100.00;93422.94;2081500;28;20029;-84
2022/07/03 01:34:14;;;;;;;2.42;2.00;;;;;;;10.85;100.00;93420.97;2090686;28;20116;-85
2022/07/03 01:35:27;;;;;;;4.35;2.13;;;;;;;10.92;100.00;93420.06;2082485;28;20021;-84
2022/07/03 01:36:30;;;;;;;3.03;1.92;;;;;;;11.01;100.00;93428.28;2099054;28;20024;-83
2022/07/03 01:37:34;;;;;;;2.20;2.00;;;;;;;11.06;100.00;93419.78;2097333;28;20444;-86
2022/07/03 01:38:37;;;;;;;4.38;2.00;;;;;;;10.89;100.00;93424.31;2081585;28;20497;-84
2022/07/03 01:39:43;;;;;;;3.63;2.10;;;;;;;10.91;100.00;93416.63;2089773;28;20024;-83
2022/07/03 01:40:44;;;;;;;2.40;2.13;;;;;;;10.85;100.00;93418.28;2089634;28;20056;-84
2022/07/03 01:41:47;;;;;;;2.60;2.05;;;;;;;10.77;100.00;93417.66;2088992;28;20032;-82
2022/07/03 01:42:51;;;;;;;3.60;2.10;;;;;;;10.76;100.00;93423.41;2081552;28;20039;-83
2022/07/03 01:43:57;;;;;;;2.08;1.90;;;;;;;10.84;100.00;93420.22;2081527;28;20021;-86
2022/07/03 01:44:59;;;;;;;5.68;2.13;;;;;;;10.84;100.00;93425.56;2081993;28;20026;-87
2022/07/03 01:46:04;;;;;;;5.15;2.10;;;;;;;10.86;100.00;93419.78;2089090;28;20377;-84
2022/07/03 01:47:05;;;;;;;2.17;1.95;;;;;;;10.82;100.00;93419.09;2089255;28;20628;-84
2022/07/03 01:48:09;;;;;;;2.53;2.15;;;;;;;10.85;100.00;93418.28;2092918;28;20024;-86
2022/07/03 01:49:12;;;;;;;3.83;2.47;;;;;;;10.80;100.00;93421.44;2085201;28;20032;-86
2022/07/03 01:50:15;;;;;;;3.13;2.03;;;;;;;10.75;100.00;93421.88;2089473;28;20577;-86
2022/07/03 01:51:17;;;;;;;7.72;2.05;;;;;;;10.73;100.00;93413.53;2089192;28;20491;-85
2022/07/03 01:52:21;;;;;;;3.85;2.17;;;;;;;10.78;100.00;93419.16;2080980;28;20033;-85
2022/07/03 01:53:27;;;;;;;4.43;2.30;;;;;;;10.81;100.00;93414.91;2096996;28;20580;-84
2022/07/03 01:54:31;;;;;;;2.75;2.25;;;;;;;10.82;100.00;93413.75;2090417;28;20029;-83
2022/07/03 01:55:34;;;;;;;4.45;2.35;;;;;;;10.86;100.00;93417.13;2089139;28;20112;-88
2022/07/03 01:56:36;;;;;;;4.25;2.47;;;;;;;10.80;100.00;93410.75;2081163;28;20033;-85
2022/07/03 01:57:45;;;;;;;3.83;2.40;;;;;;;10.84;100.00;93417.53;2080776;28;20636;-88
2022/07/03 01:58:46;;;;;;;3.22;2.35;;;;;;;10.68;100.00;93416.69;2066822;28;20036;-85
2022/07/03 01:59:47;;;;;;;3.25;2.40;;;;;;;10.75;100.00;93421.88;2072782;28;20030;-86
2022/07/03 02:01:08;;;;;;;3.58;2.60;;;;;;;10.79;100.00;93409.97;2072423;28;20022;-85
2022/07/03 02:02:32;;;;;;;3.58;2.45;;;;;;;10.72;100.00;93412.03;2077711;28;20577;-83
2022/07/03 02:03:39;;;;;;;3.38;2.40;;;;;;;10.71;100.00;93410.50;2083870;28;20485;-85
2022/07/03 02:04:54;;;;;;;3.58;2.28;;;;;;;10.72;100.00;93407.44;2073172;28;20427;-83
2022/07/03 02:06:23;;;;;;;4.85;2.83;;;;;;;10.72;100.00;93409.34;2091442;28;20119;-85
2022/07/03 02:08:07;;;;;;;4.03;2.47;;;;;;;10.45;100.00;93407.50;2083475;28;20033;-85
2022/07/03 02:09:11;;;;;;;2.75;2.28;;;;;;;10.49;100.00;93416.22;2099129;28;20118;-86
2022/07/03 02:10:22;;;;;;;2.72;2.08;;;;;;;10.58;100.00;93413.03;2089254;28;20024;-83
2022/07/03 02:11:26;;;;;;;2.75;2.45;;;;;;;10.61;100.00;93416.78;2083567;28;20037;-83
2022/07/03 02:14:09;;;;;;;;;;;;;;;10.50;100.00;93409.72;2139717;27;20173;-81
2022/07/03 02:15:11;;;;;;;5.13;2.10;;;;;;;10.40;100.00;93407.19;2121281;28;19923;-81
2022/07/03 02:16:18;;;;;;;3.55;2.45;;;;;;;10.46;100.00;93411.69;2104595;28;20031;-81
2022/07/03 02:17:21;;;;;;;2.97;2.08;;;;;;;10.47;100.00;93410.50;2103424;28;20453;-81
2022/07/03 02:18:33;;;;;;;5.18;2.47;;;;;;;10.55;100.00;93403.13;2096707;28;20020;-81
2022/07/03 02:20:00;;;;;;;4.57;2.60;;;;;;;10.42;100.00;93410.22;2106072;28;20139;-81
2022/07/03 02:21:13;;;;;;;2.47;2.28;;;;;;;10.46;100.00;93400.25;2113660;28;20076;-82
2022/07/03 02:22:14;;;;;;;4.82;2.10;;;;;;;10.51;100.00;93399.78;2114402;28;20023;-81
2022/07/03 02:23:19;;;;;;;2.50;2.28;;;;;;;10.51;100.00;93400.53;2104369;28;20107;-81
2022/07/03 02:24:25;;;;;;;2.65;2.40;;;;;;;10.57;100.00;93393.53;2097142;28;20029;-81
2022/07/03 02:25:36;;;;;;;6.68;2.42;;;;;;;10.55;100.00;93398.56;2105927;28;20055;-81
2022/07/03 02:26:38;;;;;;;;;;;;;;;10.48;100.00;93397.91;2106285;28;20048;-81
2022/07/03 02:27:44;;;;;;;5.50;2.25;;;;;;;10.46;100.00;93394.91;2104726;28;19955;-82
2022/07/03 02:29:11;;;;;;;2.35;2.05;;;;;;;10.31;100.00;93395.13;2105133;28;20449;-81
2022/07/03 02:30:13;;;;;;;6.60;2.45;;;;;;;10.42;100.00;93405.63;2108670;28;20062;-81
2022/07/03 02:31:18;;;;;;;3.17;2.25;;;;;;;10.36;100.00;93393.13;2117811;27;20423;-81
2022/07/03 02:32:23;;;;;;;3.92;2.40;;;;;;;10.33;100.00;93394.72;2121662;27;20019;-81
2022/07/03 02:33:31;;;;;;;3.55;2.13;;;;;;;10.40;100.00;93401.84;2104509;28;20036;-81
2022/07/03 02:34:35;;;;;;;4.97;2.22;;;;;;;10.21;100.00;93404.03;2114814;27;20028;-81
2022/07/03 02:35:37;;;;;;;4.43;2.50;;;;;;;10.30;100.00;93398.19;2113008;28;20119;-81
2022/07/03 02:36:43;;;;;;;4.82;2.28;;;;;;;10.35;100.00;93400.41;2108309;28;20012;-82
2022/07/03 02:38:15;;;;;;;3.50;2.10;;;;;;;10.37;100.00;93402.69;2114140;27;20024;-81
2022/07/03 02:39:27;;;;;;;2.50;2.30;;;;;;;10.31;100.00;93410.38;2125562;27;20107;-81
2022/07/03 02:40:37;;;;;;;3.60;2.42;;;;;;;10.33;100.00;93408.84;2122753;27;20023;-81
2022/07/03 02:41:50;;;;;;;2.42;2.22;;;;;;;10.29;100.00;93408.13;2110416;28;20028;-81
2022/07/03 02:43:03;;;;;;;2.92;2.33;;;;;;;10.27;100.00;93407.03;2090999;28;20040;-81
2022/07/03 02:44:20;;;;;;;2.25;2.00;;;;;;;10.34;100.00;93412.25;2090860;28;20032;-81
2022/07/03 02:45:25;;;;;;;2.63;2.42;;;;;;;10.26;100.00;93416.94;2092006;28;20059;-81
2022/07/03 02:48:08;;;;;;;2.38;2.10;;;;;;;10.30;100.00;93412.31;2107188;28;20054;-81
2022/07/03 02:49:52;;;;;;;6.15;2.28;;;;;;;10.22;100.00;93418.91;2102564;28;20489;-81
2022/07/03 02:51:01;;;;;;;3.92;2.20;;;;;;;10.19;100.00;93418.97;2104004;28;20083;-81
2022/07/03 02:52:14;;;;;;;2.75;2.30;;;;;;;9.99;100.00;93418.88;2102914;28;20508;-81
2022/07/03 02:53:37;;;;;;;2.33;2.00;;;;;;;10.07;100.00;93420.28;2090909;28;20091;-82
2022/07/03 02:54:46;;;;;;;8.80;2.20;;;;;;;10.00;100.00;93423.81;2090423;28;20029;-82
2022/07/03 02:55:47;;;;;;;4.95;2.72;;;;;;;9.96;100.00;93420.44;2096811;28;20024;-81
2022/07/03 02:57:06;;;;;;;2.17;2.08;;;;;;;10.01;100.00;93420.00;2095731;28;20366;-81
2022/07/03 02:58:07;;;;;;;5.15;2.40;;;;;;;10.02;100.00;93421.50;2106471;28;20024;-81
2022/07/03 02:59:29;;;;;;;4.00;2.40;;;;;;;9.96;100.00;93420.44;2112508;28;20020;-81
2022/07/03 03:00:34;;;;;;;2.65;2.45;;;;;;;9.90;100.00;93424.72;2089245;28;20481;-81
2022/07/03 03:01:36;;;;;;;2.58;2.38;;;;;;;9.85;100.00;93427.84;2080509;28;20026;-81
2022/07/03 03:02:53;;;;;;;2.20;2.00;;;;;;;9.96;100.00;93428.44;2086929;28;20017;-81
2022/07/03 03:04:19;;;;;;;3.60;2.35;;;;;;;9.78;100.00;93434.03;2103844;28;20020;-82
2022/07/03 03:05:45;;;;;;;2.85;2.20;;;;;;;9.94;100.00;93428.09;2099161;28;20020;-81
2022/07/03 03:07:16;;;;;;;2.78;2.42;;;;;;;9.96;100.00;93433.03;2094317;28;20924;-82
2022/07/03 03:08:47;;;;;;;4.50;2.35;;;;;;;9.98;100.00;93425.38;2087164;28;20510;-81
2022/07/03 03:09:48;;;;;;;2.13;1.90;;;;;;;9.93;100.00;93433.84;2103817;28;20107;-81
2022/07/03 03:10:50;;;;;;;3.58;2.20;;;;;;;9.93;100.00;93434.59;2103915;28;20024;-81
2022/07/03 03:11:55;;;;;;;3.72;2.60;;;;;;;9.88;100.00;93431.59;2079642;28;20116;-81
2022/07/03 03:13:12;;;;;;;3.17;2.22;;;;;;;9.91;100.00;93433.47;2080890;28;20025;-81
2022/07/03 03:14:19;;;;;;;2.80;2.30;;;;;;;9.71;100.00;93433.38;2091813;28;20049;-81
2022/07/03 03:15:25;;;;;;;2.33;2.13;;;;;;;9.79;100.00;93432.88;2104753;28;20031;-81
2022/07/03 03:16:27;;;;;;;3.83;2.25;;;;;;;9.81;100.00;93435.16;2095532;28;20020;-81
2022/07/03 03:17:50;;;;;;;4.30;2.55;;;;;;;9.66;100.00;93434.59;2087428;28;20211;-81
2022/07/03 03:18:52;;;;;;;2.50;2.30;;;;;;;9.79;100.00;93434.81;2102066;28;20059;-80
2022/07/03 03:19:56;;;;;;;2.50;2.30;;;;;;;9.78;100.00;93443.94;2095695;28;20028;-81
2022/07/03 03:20:59;;;;;;;2.83;2.17;;;;;;;9.79;100.00;93437.47;2088017;28;20389;-81
2022/07/03 03:22:27;;;;;;;4.82;1.98;;;;;;;9.79;100.00;93435.56;2096342;28;20761;-81
2022/07/03 03:23:48;;;;;;;3.97;2.38;;;;;;;9.79;100.00;93435.56;2107913;28;20023;-81
2022/07/03 03:24:50;;;;;;;6.28;2.08;;;;;;;9.81;100.00;93438.56;2096851;28;20036;-81
2022/07/03 03:25:55;;;;;;;3.03;2.58;;;;;;;9.81;100.00;93430.56;2090158;28;20032;-81
2022/07/03 03:26:57;;;;;;;5.05;2.40;;;;;;;9.73;100.00;93439.06;2098960;28;20028;-81
2022/07/03 03:27:59;;;;;;;3.78;2.10;;;;;;;9.63;100.00;93431.97;2098567;28;20464;-81
2022/07/03 03:29:01;;;;;;;2.78;2.35;;;;;;;9.57;100.00;93437.75;2090151;28;20021;-81
2022/07/03 03:30:06;;;;;;;2.70;2.20;;;;;;;9.55;100.00;93437.38;2090414;28;20035;-81
2022/07/03 03:31:09;;;;;;;3.13;2.35;;;;;;;9.55;100.00;93439.28;2090414;28;20079;-81
2022/07/03 03:32:11;;;;;;;3.63;2.00;;;;;;;9.62;100.00;93438.47;2090759;28;20373;-81
2022/07/03 03:33:12;;;;;;;2.40;2.20;;;;;;;9.58;100.00;93447.25;2098331;28;20037;-81
2022/07/03 03:34:15;;;;;;;2.55;2.35;;;;;;;9.66;100.00;93447.16;2098422;28;20028;-82
2022/07/03 03:35:17;;;;;;;3.10;2.30;;;;;;;9.71;100.00;93446.72;2090161;28;20025;-81
2022/07/03 03:36:20;;;;;;;2.88;2.08;;;;;;;9.71;100.00;93441.41;2103623;28;20028;-81
2022/07/03 03:37:21;;;;;;;3.58;2.50;;;;;;;9.53;100.00;93446.97;2098395;28;20143;-81
2022/07/03 03:38:23;;;;;;;2.83;1.92;;;;;;;9.57;100.00;93450.34;2097990;28;20111;-82
2022/07/03 03:39:26;;;;;;;5.53;2.22;;;;;;;9.59;100.00;93448.03;2091789;28;20025;-82
2022/07/03 03:40:27;;;;;;;2.92;2.00;;;;;;;9.52;100.00;93438.19;2082061;28;20171;-82
2022/07/03 03:41:29;;;;;;;3.95;1.85;;;;;;;9.49;100.00;93436.31;2081785;28;20029;-81
2022/07/03 03:42:33;;;;;;;2.45;2.25;;;;;;;9.49;100.00;93447.00;2099461;28;20350;-81
2022/07/03 03:43:36;;;;;;;3.75;2.35;;;;;;;9.43;100.00;93439.81;2114470;28;20028;-81
2022/07/03 03:44:39;;;;;;;3.58;2.20;;;;;;;9.38;100.00;93435.69;2098128;28;20069;-81
2022/07/03 03:45:42;;;;;;;2.70;2.13;;;;;;;9.31;100.00;93447.22;2099054;28;20082;-81
2022/07/03 03:46:43;;;;;;;5.32;2.28;;;;;;;9.40;100.00;93445.97;2115141;27;20034;-82
2022/07/03 03:47:45;;;;;;;2.33;2.13;;;;;;;9.43;100.00;93445.91;2101171;28;20407;-82
2022/07/03 03:48:47;;;;;;;3.53;2.50;;;;;;;9.40;100.00;93443.31;2082718;28;20029;-82
2022/07/03 03:49:49;;;;;;;4.30;2.15;;;;;;;9.43;100.00;93443.25;2098613;28;20404;-82
2022/07/03 03:50:50;;;;;;;2.50;2.30;;;;;;;9.47;100.00;93446.63;2104818;28;20024;-82
2022/07/03 03:51:52;;;;;;;8.60;2.17;;;;;;;9.52;100.00;93445.44;2089761;28;20024;-80
2022/07/03 03:52:53;;;;;;;5.07;2.10;;;;;;;9.56;100.00;93440.81;2081977;28;20036;-81
2022/07/03 03:53:55;;;;;;;3.85;2.50;;;;;;;9.58;100.00;93444.59;2081578;28;20029;-82
2022/07/03 03:54:56;;;;;;;5.75;2.58;;;;;;;9.59;100.00;93448.78;2081681;28;20029;-82
2022/07/03 03:56:05;;;;;;;3.75;2.50;;;;;;;9.56;100.00;93444.22;2081513;28;20021;-81
2022/07/03 03:57:20;;;;;;;3.25;2.78;;;;;;;9.58;100.00;93447.25;2092105;28;20029;-82
2022/07/03 03:58:21;;;;;;;3.92;2.35;;;;;;;9.54;100.00;93451.13;2091552;28;20179;-81
2022/07/03 03:59:22;;;;;;;3.05;2.78;;;;;;;9.55;100.00;93445.38;2081412;28;20029;-81
2022/07/03 04:00:24;;;;;;;3.08;2.20;;;;;;;9.54;100.00;93441.22;2089697;28;20048;-81
2022/07/03 04:01:27;;;;;;;2.78;2.42;;;;;;;9.55;100.00;93442.72;2090446;28;20021;-81
2022/07/03 04:02:28;;;;;;;3.38;2.22;;;;;;;9.46;100.00;93449.72;2098087;28;20032;-82
2022/07/03 04:03:30;;;;;;;2.78;2.58;;;;;;;9.48;100.00;93456.16;2098106;28;20047;-81
2022/07/03 04:04:32;;;;;;;2.70;2.50;;;;;;;9.57;100.00;93455.69;2090020;28;20144;-81
2022/07/03 04:05:34;;;;;;;4.22;2.58;;;;;;;9.63;100.00;93459.41;2089898;28;20029;-81
2022/07/03 04:06:35;;;;;;;2.50;2.30;;;;;;;9.72;100.00;93453.56;2098091;28;20749;-81
2022/07/03 04:07:36;;;;;;;2.85;2.50;;;;;;;9.78;100.00;93459.97;2089962;28;20033;-81
2022/07/03 04:08:37;;;;;;;4.18;2.80;;;;;;;9.79;100.00;93466.84;2098012;28;20095;-82
2022/07/03 04:09:39;;;;;;;8.88;3.47;;;;;;;9.82;100.00;93458.00;2089502;28;20029;-82
2022/07/03 04:10:40;;;;;;;3.47;2.97;;;;;;;9.89;100.00;93462.50;2094328;28;20020;-81
2022/07/03 04:11:41;;;;;;;4.30;2.55;;;;;;;9.95;100.00;93458.22;2097971;28;20059;-81
2022/07/03 04:12:44;;;;;;;4.25;3.03;;;;;;;9.97;100.00;93456.66;2098023;28;20020;-81
2022/07/03 04:13:48;;;;;;;3.92;2.67;;;;;;;9.92;100.00;93461.69;2106202;28;20516;-81
2022/07/03 04:14:49;;;;;;;2.90;2.70;;;;;;;9.91;100.00;93462.84;2098601;28;20169;-82
2022/07/03 04:15:53;;;;;;;8.02;3.05;;;;;;;9.86;100.00;93464.06;2098062;28;20028;-81
2022/07/03 04:16:54;;;;;;;3.45;3.13;;;;;;;9.93;100.00;93472.00;2106774;28;20047;-81
2022/07/03 04:17:55;;;;;;;3.50;3.17;;;;;;;9.96;100.00;93465.06;2091239;28;20029;-81
2022/07/03 04:18:58;;;;;;;3.50;3.10;;;;;;;10.09;100.00;93477.47;2081625;28;20385;-81
2022/07/03 04:19:59;;;;;;;3.30;3.00;;;;;;;10.11;100.00;93479.00;2081844;28;20037;-81
2022/07/03 04:21:00;;;;;;;3.83;3.08;;;;;;;10.12;100.00;93467.16;2089767;28;20452;-81
2022/07/03 04:22:02;;;;;;;6.10;3.53;;;;;;;10.12;100.00;93472.50;2089817;28;20033;-81
2022/07/03 04:23:04;;;;;;;4.45;3.10;;;;;;;10.24;100.00;93469.25;2089739;28;20035;-81
2022/07/03 04:24:06;;;;;;;6.55;3.08;;;;;;;10.27;100.00;93473.81;2089967;28;20025;-81
2022/07/03 04:25:07;;;;;;;3.03;2.72;;;;;;;10.25;100.00;93476.16;2097887;28;20029;-82
2022/07/03 04:26:11;;;;;;;3.67;2.80;;;;;;;10.20;100.00;93476.56;2089791;28;20092;-81
2022/07/03 04:27:12;;;;;;;3.10;2.50;;;;;;;10.22;100.00;93471.56;2098305;28;20024;-81
2022/07/03 04:28:14;;;;;;;3.95;3.00;;;;;;;10.21;100.00;93475.41;2094204;28;20504;-81
2022/07/03 04:29:17;;;;;;;2.97;2.65;;;;;;;10.26;100.00;93478.41;2089977;28;20092;-81
2022/07/03 04:30:18;;;;;;;2.85;2.60;;;;;;;10.30;100.00;93481.03;2089867;28;20024;-82
2022/07/03 04:31:19;;;;;;;3.67;3.00;;;;;;;10.37;100.00;93480.94;2097887;28;20509;-81
2022/07/03 04:32:20;;;;;;;4.35;2.80;;;;;;;10.41;100.00;93472.88;2097798;28;20115;-82
2022/07/03 04:33:21;;;;;;;4.30;2.90;;;;;;;10.39;100.00;93470.59;2106275;28;20034;-81
2022/07/03 04:34:23;;;;;;;3.75;3.05;;;;;;;10.50;100.00;93468.50;2106256;28;20028;-81
2022/07/03 04:35:25;;;;;;;4.55;3.47;;;;;;;10.52;100.00;93471.53;2087551;28;20035;-81
2022/07/03 04:36:26;;;;;;;4.20;2.60;;;;;;;10.52;100.00;93468.84;2081049;28;20029;-82
2022/07/03 04:37:27;;;;;;;2.97;2.67;;;;;;;10.45;100.00;93470.91;2080710;28;20021;-81
2022/07/03 04:38:30;;;;;;;2.85;2.60;;;;;;;10.44;100.00;93475.47;2073074;28;20026;-81
2022/07/03 04:39:31;;;;;;;3.35;2.90;;;;;;;10.53;100.00;93470.34;2088162;28;20079;-82
2022/07/03 04:40:33;;;;;;;3.35;2.97;;;;;;;10.58;100.00;93469.16;2106300;28;20024;-82
2022/07/03 04:41:34;;;;;;;6.38;2.80;;;;;;;10.58;100.00;93467.25;2105992;28;20031;-81
2022/07/03 04:42:35;;;;;;;5.00;3.03;;;;;;;10.58;100.00;93463.81;2102336;28;20027;-81
2022/07/03 04:43:37;;;;;;;4.03;2.90;;;;;;;10.80;100.00;93464.22;2097810;28;20048;-81
2022/07/03 04:44:38;;;;;;;4.38;3.17;;;;;;;10.75;100.00;93464.66;2089391;28;20075;-82
2022/07/03 04:45:39;;;;;;;3.88;2.80;;;;;;;10.77;100.00;93467.69;2089649;28;20056;-81
2022/07/03 04:46:41;;;;;;;3.58;2.80;;;;;;;10.69;100.00;93472.41;2106052;28;20028;-82
2022/07/03 04:47:42;;;;;;;3.35;3.05;;;;;;;10.69;100.00;93475.06;2089620;28;20025;-81
2022/07/03 04:48:43;;;;;;;3.50;2.85;;;;;;;10.70;100.00;93470.47;2081368;28;20487;-82
2022/07/03 04:49:44;;;;;;;5.22;3.00;;;;;;;10.74;100.00;93469.25;2090806;28;20113;-82
2022/07/03 04:50:46;;;;;;;4.57;2.83;;;;;;;10.74;100.00;93471.94;2097774;28;20024;-81
2022/07/03 04:51:47;;;;;;;3.58;2.63;;;;;;;10.75;100.00;93468.09;2097721;28;20036;-82
2022/07/03 04:52:48;;;;;;;3.28;2.95;;;;;;;10.78;100.00;93464.59;2096249;28;20099;-82
2022/07/03 04:53:49;;;;;;;3.72;2.80;;;;;;;10.83;100.00;93472.16;2094788;28;20123;-80
2022/07/03 04:54:50;;;;;;;3.72;2.80;;;;;;;10.83;100.00;93466.06;2097496;28;20024;-82
2022/07/03 04:55:52;;;;;;;3.47;2.83;;;;;;;10.80;100.00;93464.97;2097604;28;20043;-81
2022/07/03 04:56:53;;;;;;;2.95;2.63;;;;;;;10.83;100.00;93461.47;2091440;28;20486;-82
2022/07/03 04:57:55;;;;;;;3.05;2.75;;;;;;;10.83;100.00;93464.13;2089576;28;20028;-81
2022/07/03 04:58:56;;;;;;;3.67;2.80;;;;;;;10.84;100.00;93465.66;2105891;28;20027;-82
2022/07/03 04:59:59;;;;;;;3.15;2.70;;;;;;;10.89;100.00;93467.13;2089329;28;20555;-81
2022/07/03 05:00:59;;;;;;;4.95;2.70;;;;;;;10.89;100.00;93464.44;2081463;28;20442;-82
2022/07/03 05:02:01;;;;;;;2.72;2.53;;;;;;;10.93;100.00;93465.13;2089323;28;20020;-82
2022/07/03 05:03:02;;;;;;;3.08;2.78;;;;;;;10.95;100.00;93467.38;2089432;28;20036;-82
2022/07/03 05:04:03;;;;;;;2.70;2.47;;;;;;;10.99;100.00;93468.09;2097625;28;20464;-81
2022/07/03 05:05:05;;;;;;;3.67;2.78;;;;;;;11.02;100.00;93469.94;2096980;28;20036;-82
2022/07/03 05:06:07;;;;;;;2.95;2.65;;;;;;;11.05;100.00;93467.19;2097566;28;20472;-81
2022/07/03 05:07:09;;;;;;;2.58;2.38;;;;;;;11.13;100.00;93469.75;2093433;28;20033;-82
2022/07/03 05:08:10;;;;;;;7.25;2.47;;;;;;;11.16;100.00;93472.38;2088981;28;20092;-82
2022/07/03 05:09:11;;;;;;;4.80;2.80;;;;;;;11.12;100.00;93471.66;2081292;28;20025;-81
2022/07/03 05:10:13;;;;;;;2.80;2.60;;;;;;;11.12;100.00;93471.66;2081149;28;20056;-81
2022/07/03 05:11:15;;;;;;;3.75;2.70;;;;;;;11.17;100.00;93478.47;2082726;28;20034;-81
2022/07/03 05:12:16;;;;;;;4.50;3.05;;;;;;;11.17;100.00;93465.09;2096502;28;20074;-82